Time;durP1;ratioP1;P1;durP2;ratioP2;P2;SDS_P1;SDS_P2;PMS_P1;PMS_P2;Temp;Humidity;BMP_temperature;BMP_pressure;BME280_temperature;BME280_humidity;BME280_pressure;Samples;Min_cycle;Max_cycle;Signal;HPM_P1;HPM_P2
2022/05/26 00:00:34;;;;;;;3.90;1.30;;;;;;;15.22;59.43;100807.40;106035;1280;61350;-84
2022/05/26 00:03:01;;;;;;;3.70;1.20;;;;;;;15.22;59.92;100816.55;106023;1281;61210;-84
2022/05/26 00:05:28;;;;;;;2.40;1.60;;;;;;;15.22;60.10;100816.70;107169;1280;75380;-85
2022/05/26 00:07:55;;;;;;;5.20;1.40;;;;;;;15.21;60.46;100817.91;106809;1281;71740;-85
2022/05/26 00:10:22;;;;;;;2.40;1.10;;;;;;;15.20;60.67;100818.16;106051;1281;76282;-87
2022/05/26 00:12:49;;;;;;;6.70;1.10;;;;;;;15.18;61.06;100822.52;106143;1281;61389;-87
2022/05/26 00:15:16;;;;;;;1.70;1.20;;;;;;;15.17;61.15;100836.19;106220;1279;60541;-84
2022/05/26 00:17:42;;;;;;;3.00;1.40;;;;;;;15.16;61.38;100820.33;106037;1281;74893;-84
2022/05/26 00:20:09;;;;;;;3.00;1.40;;;;;;;15.15;61.51;100816.17;106211;1280;61450;-84
2022/05/26 00:22:36;;;;;;;2.30;1.50;;;;;;;15.12;61.79;100809.95;105984;1281;73021;-87
2022/05/26 00:25:03;;;;;;;5.10;2.00;;;;;;;15.10;62.16;100819.16;106126;1280;61402;-86
2022/05/26 00:27:29;;;;;;;4.20;1.50;;;;;;;15.06;62.52;100824.98;106151;1281;61552;-85
2022/05/26 00:29:56;;;;;;;4.40;1.30;;;;;;;15.04;62.82;100825.56;106039;1281;74390;-84
2022/05/26 00:32:23;;;;;;;5.00;1.50;;;;;;;15.02;63.00;100826.32;106167;1281;73727;-85
2022/05/26 00:34:50;;;;;;;3.20;1.20;;;;;;;15.01;63.21;100832.70;106184;1281;61217;-84
2022/05/26 00:37:16;;;;;;;2.90;1.50;;;;;;;15.01;63.45;100819.05;106331;1281;60565;-85
2022/05/26 00:39:43;;;;;;;2.70;1.50;;;;;;;15.00;63.58;100826.13;106331;1280;60003;-85
2022/05/26 00:42:12;;;;;;;2.40;1.50;;;;;;;14.97;64.15;100823.62;106371;1279;74837;-86
2022/05/26 00:44:42;;;;;;;1.90;1.20;;;;;;;14.95;64.83;100835.60;106352;1281;71532;-86
2022/05/26 00:47:17;;;;;;;3.10;1.20;;;;;;;14.90;65.66;100835.62;106120;1280;72928;-84
2022/05/26 00:49:56;;;;;;;3.20;1.20;;;;;;;14.82;67.24;100846.15;106205;1281;61639;-85
2022/05/26 00:52:42;;;;;;;3.50;1.60;;;;;;;14.69;68.95;100854.05;106081;1281;60682;-85
2022/05/26 00:55:15;;;;;;;1.80;1.00;;;;;;;14.51;70.93;100841.73;106072;1281;76286;-86
2022/05/26 00:57:52;;;;;;;3.20;1.30;;;;;;;14.36;71.86;100840.96;106737;1280;71277;-85
2022/05/26 01:00:26;;;;;;;1.70;1.30;;;;;;;14.24;72.87;100838.25;106261;1281;73578;-85
2022/05/26 01:03:20;;;;;;;2.30;1.10;;;;;;;14.14;73.47;100834.29;106130;1281;62244;-85
2022/05/26 01:05:58;;;;;;;5.20;1.70;;;;;;;14.04;74.27;100834.67;106226;1281;61120;-86
2022/05/26 01:08:32;;;;;;;4.00;1.40;;;;;;;13.99;74.70;100828.81;106214;1279;76168;-85
2022/05/26 01:16:54;;;;;;;7.10;1.50;;;;;;;13.84;75.19;100831.89;107869;1267;155278;-87
2022/05/26 01:19:57;;;;;;;4.30;2.10;;;;;;;13.80;75.51;100831.80;107751;1279;61227;-87
2022/05/26 01:22:42;;;;;;;3.00;1.70;;;;;;;13.79;75.09;100821.15;107446;1278;75066;-86
2022/05/26 01:25:27;;;;;;;;;;;;;;;13.76;75.54;100817.20;107976;1279;69856;-85
2022/05/26 01:28:16;;;;;;;3.20;2.00;;;;;;;13.74;75.41;100825.66;107821;1277;72006;-87
2022/05/26 01:31:06;;;;;;;2.00;1.80;;;;;;;13.72;75.54;100824.83;107635;1278;62547;-87
2022/05/26 01:34:02;;;;;;;4.00;2.30;;;;;;;13.73;75.80;100818.51;106526;1278;61401;-86
2022/05/26 01:37:13;;;;;;;4.20;1.90;;;;;;;13.75;75.47;100825.14;106488;1277;77605;-86
2022/05/26 01:40:08;;;;;;;4.10;1.90;;;;;;;13.77;75.53;100819.21;107005;1277;71697;-86
2022/05/26 01:42:59;;;;;;;2.50;1.90;;;;;;;13.79;75.49;100823.65;108087;1278;72947;-86
2022/05/26 01:45:39;;;;;;;6.10;2.40;;;;;;;13.80;75.51;100823.33;107535;1278;61213;-86
2022/05/26 01:48:29;;;;;;;5.10;2.20;;;;;;;13.82;75.16;100823.44;106306;1277;63344;-85
2022/05/26 01:53:57;;;;;;;;;;;;;;;13.85;75.12;100819.88;106438;1270;160576;-86
2022/05/26 01:56:43;;;;;;;4.60;2.20;;;;;;;13.85;74.88;100819.59;106301;1279;71611;-85
2022/05/26 01:59:17;;;;;;;3.60;2.60;;;;;;;13.86;74.72;100825.84;105982;1281;62554;-86
2022/05/26 02:01:51;;;;;;;2.90;2.20;;;;;;;13.90;74.51;100821.92;106144;1281;61965;-86
2022/05/26 02:04:24;;;;;;;2.70;2.00;;;;;;;13.91;74.47;100827.44;106318;1279;74907;-85
2022/05/26 02:06:59;;;;;;;2.90;2.40;;;;;;;13.94;74.23;100826.02;107036;1279;71538;-85
2022/05/26 02:09:42;;;;;;;2.90;2.20;;;;;;;13.96;74.26;100829.70;107622;1281;74256;-85
2022/05/26 02:12:33;;;;;;;4.50;2.40;;;;;;;13.98;73.97;100827.66;106008;1281;62638;-85
2022/05/26 02:15:16;;;;;;;4.10;2.70;;;;;;;14.01;73.74;100826.92;106631;1279;61289;-85
2022/05/26 02:17:47;;;;;;;3.50;2.60;;;;;;;14.04;73.47;100822.85;106444;1281;77334;-87
2022/05/26 02:20:20;;;;;;;3.50;2.20;;;;;;;14.05;73.35;100816.78;107835;1279;70389;-85
2022/05/26 02:22:53;;;;;;;3.00;1.70;;;;;;;14.07;73.21;100823.98;106698;1281;73023;-86
2022/05/26 02:25:25;;;;;;;5.40;2.50;;;;;;;14.11;73.05;100824.27;106617;1279;62249;-86
2022/05/26 02:27:57;;;;;;;5.00;2.40;;;;;;;14.13;72.93;100822.02;106691;1279;61473;-86
2022/05/26 02:30:30;;;;;;;4.40;1.90;;;;;;;14.15;72.86;100820.01;107848;1279;75042;-85
2022/05/26 02:32:59;;;;;;;3.10;2.40;;;;;;;14.16;72.83;100827.70;106486;1281;71118;-87
2022/05/26 02:35:29;;;;;;;5.00;1.90;;;;;;;14.17;72.75;100822.70;106387;1280;74233;-86
2022/05/26 02:38:01;;;;;;;3.10;2.10;;;;;;;14.19;73.01;100822.63;106358;1281;62050;-85
2022/05/26 02:40:29;;;;;;;6.80;2.80;;;;;;;14.20;73.08;100828.02;106257;1281;60894;-85
2022/05/26 02:43:00;;;;;;;5.60;2.40;;;;;;;14.21;72.97;100823.66;106092;1279;74786;-85
2022/05/26 02:45:46;;;;;;;5.20;2.50;;;;;;;14.22;73.02;100833.00;106116;1281;72371;-86
2022/05/26 02:48:22;;;;;;;2.20;1.50;;;;;;;14.22;72.97;100820.96;106383;1279;74085;-86
2022/05/26 02:51:08;;;;;;;5.50;2.40;;;;;;;14.24;73.16;100825.08;106463;1279;61395;-85
2022/05/26 02:53:41;;;;;;;2.80;2.00;;;;;;;14.24;73.09;100827.50;106197;1279;61128;-85
2022/05/26 02:56:26;;;;;;;2.80;1.70;;;;;;;14.25;73.47;100823.85;106162;1279;78408;-84
2022/05/26 02:59:11;;;;;;;2.60;2.00;;;;;;;14.24;73.71;100826.48;106165;1281;73908;-85
2022/05/26 03:01:53;;;;;;;4.90;2.50;;;;;;;14.24;73.66;100827.02;106250;1281;73026;-85
2022/05/26 03:04:32;;;;;;;4.20;2.00;;;;;;;14.24;73.93;100828.36;106500;1279;63239;-85
2022/05/26 03:07:04;;;;;;;3.50;2.50;;;;;;;14.23;73.96;100827.95;106526;1279;61288;-86
2022/05/26 03:09:35;;;;;;;10.90;2.80;;;;;;;14.24;74.15;100829.48;106395;1279;74912;-86
2022/05/26 03:12:02;;;;;;;3.00;2.60;;;;;;;14.24;74.16;100835.39;106303;1280;71435;-86
2022/05/26 03:14:29;;;;;;;5.30;2.30;;;;;;;14.24;74.28;100832.80;106375;1280;74523;-86
2022/05/26 03:16:56;;;;;;;8.50;2.60;;;;;;;14.24;74.29;100828.73;106192;1281;63409;-86
2022/05/26 03:19:22;;;;;;;6.60;2.90;;;;;;;14.24;74.47;100834.56;105974;1281;60729;-89
2022/05/26 03:21:49;;;;;;;3.20;2.80;;;;;;;14.24;74.60;100831.61;106112;1281;62082;-85
2022/05/26 03:24:16;;;;;;;4.80;3.40;;;;;;;14.24;74.75;100829.84;106016;1281;71513;-84
2022/05/26 03:26:42;;;;;;;4.00;2.70;;;;;;;14.24;74.85;100833.41;106518;1281;74006;-84
2022/05/26 03:29:09;;;;;;;5.20;3.30;;;;;;;14.23;75.14;100831.69;107522;1279;61013;-86
2022/05/26 03:31:38;;;;;;;4.50;3.10;;;;;;;14.24;74.83;100828.61;107584;1281;61224;-85
2022/05/26 03:42:20;;;;;;;5.90;3.40;;;;;;;14.27;75.01;100820.17;107780;1281;60881;-86
2022/05/26 03:44:47;;;;;;;6.50;3.50;;;;;;;14.27;75.17;100822.48;107388;1281;61099;-86
2022/05/26 03:47:14;;;;;;;4.80;3.80;;;;;;;14.28;75.03;100826.14;107719;1281;74674;-85
2022/05/26 03:49:41;;;;;;;6.00;4.60;;;;;;;14.30;75.04;100827.65;107766;1280;71550;-85
2022/05/26 03:52:08;;;;;;;6.10;4.10;;;;;;;14.31;75.10;100825.98;106750;1279;72929;-86
2022/05/26 03:54:34;;;;;;;5.00;3.60;;;;;;;14.31;75.05;100828.85;105929;1282;62077;-86
2022/05/26 03:57:04;;;;;;;4.70;3.50;;;;;;;14.32;75.04;100830.50;106134;1279;61188;-84
2022/05/26 03:59:34;;;;;;;5.60;3.70;;;;;;;14.31;75.17;100837.60;106103;1281;74405;-86
2022/05/26 04:02:02;;;;;;;7.50;3.90;;;;;;;14.30;75.40;100846.04;106212;1280;72337;-86
2022/05/26 04:04:32;;;;;;;5.20;3.90;;;;;;;14.28;75.51;100845.92;106155;1282;72922;-85
2022/05/26 04:07:00;;;;;;;4.80;4.00;;;;;;;14.25;77.07;100860.35;107059;1279;62102;-85
2022/05/26 04:09:27;;;;;;;6.40;5.10;;;;;;;14.14;79.82;100863.05;106835;1280;61652;-84
2022/05/26 04:11:56;;;;;;;9.40;5.10;;;;;;;13.98;82.10;100868.36;105998;1281;76426;-85
2022/05/26 04:14:25;;;;;;;6.90;5.00;;;;;;;13.77;83.24;100867.41;106485;1279;71448;-85
2022/05/26 04:16:52;;;;;;;6.20;5.20;;;;;;;13.61;84.23;100869.88;106070;1281;73557;-85
2022/05/26 04:19:24;;;;;;;6.70;5.20;;;;;;;13.50;85.45;100881.98;106072;1279;62369;-86
2022/05/26 04:24:50;;;;;;;9.30;4.70;;;;;;;13.26;88.49;100887.04;105812;1279;75495;-85
2022/05/26 04:43:57;;;;;;;10.30;6.50;;;;;;;12.95;93.61;100907.23;106347;1267;156055;-85
2022/05/26 04:46:27;;;;;;;9.10;7.30;;;;;;;12.93;94.55;100911.76;106356;1281;63278;-85
2022/05/26 04:48:54;;;;;;;7.70;6.30;;;;;;;12.91;94.96;100916.67;106287;1280;61332;-85
2022/05/26 04:51:21;;;;;;;10.30;7.60;;;;;;;12.90;95.54;100917.59;106246;1281;76372;-86
2022/05/26 04:53:49;;;;;;;7.10;5.30;;;;;;;12.89;96.68;100917.10;106870;1280;72260;-85
2022/05/26 04:56:23;;;;;;;8.90;6.60;;;;;;;12.87;96.99;100916.01;106313;1280;73177;-85
2022/05/26 04:58:52;;;;;;;9.20;6.30;;;;;;;12.86;97.22;100919.20;106175;1281;61257;-86
2022/05/26 05:01:27;;;;;;;7.90;6.00;;;;;;;12.84;97.35;100925.04;106728;1280;60416;-85
2022/05/26 05:04:07;;;;;;;10.10;5.90;;;;;;;12.85;96.53;100927.79;106056;1281;75374;-85
2022/05/26 05:06:44;;;;;;;6.20;4.40;;;;;;;12.89;95.72;100930.38;106041;1280;72503;-86
2022/05/26 05:09:24;;;;;;;5.80;4.50;;;;;;;12.96;95.29;100929.41;105996;1281;75220;-85
2022/05/26 05:12:03;;;;;;;7.10;4.50;;;;;;;13.04;94.60;100933.08;106197;1281;61337;-86
2022/05/26 05:14:43;;;;;;;5.70;3.70;;;;;;;13.13;94.44;100931.96;106474;1281;61284;-86
2022/05/26 05:17:10;;;;;;;4.50;3.70;;;;;;;13.22;94.24;100937.41;106317;1280;75017;-85
2022/05/26 05:19:40;;;;;;;6.10;4.50;;;;;;;13.31;94.15;100934.60;105795;1281;72373;-86
2022/05/26 05:22:34;;;;;;;6.40;4.10;;;;;;;13.39;93.49;100934.67;105889;1281;72768;-86
2022/05/26 05:25:08;;;;;;;5.60;3.70;;;;;;;13.51;93.18;100941.41;106709;1279;64915;-85
2022/05/26 05:27:43;;;;;;;5.50;3.60;;;;;;;13.58;92.59;100939.64;106656;1281;61197;-85
2022/05/26 05:30:22;;;;;;;5.00;4.10;;;;;;;13.65;91.84;100942.44;105955;1281;74990;-85
2022/05/26 05:32:54;;;;;;;5.70;4.30;;;;;;;13.73;91.54;100943.78;106141;1281;71571;-86
2022/05/26 05:35:26;;;;;;;5.30;4.00;;;;;;;13.80;91.38;100948.22;106079;1280;74219;-86
2022/05/26 05:37:53;;;;;;;6.30;4.20;;;;;;;13.88;90.88;100946.92;105958;1281;63267;-86
2022/05/26 05:40:20;;;;;;;5.50;4.70;;;;;;;13.95;91.03;100950.15;105868;1281;61572;-85
2022/05/26 05:42:48;;;;;;;6.80;4.70;;;;;;;14.03;90.83;100949.02;106121;1280;76283;-85
2022/05/26 05:45:15;;;;;;;6.60;4.20;;;;;;;14.11;90.43;100955.09;106152;1280;72580;-86
2022/05/26 05:47:41;;;;;;;5.10;4.30;;;;;;;14.16;89.95;100958.41;106193;1281;75218;-86
2022/05/26 05:50:08;;;;;;;8.30;4.70;;;;;;;14.22;89.49;100957.94;106033;1281;62511;-85
2022/05/26 05:52:36;;;;;;;5.00;4.20;;;;;;;14.29;89.10;100961.04;106086;1281;60822;-85
2022/05/26 05:55:04;;;;;;;5.60;3.90;;;;;;;14.34;88.74;100962.52;106157;1281;75342;-86
2022/05/26 05:57:35;;;;;;;5.20;3.70;;;;;;;14.40;88.66;100964.16;105973;1280;70870;-85
2022/05/26 06:00:04;;;;;;;4.40;3.80;;;;;;;14.43;88.26;100967.27;105997;1281;59428;-85
2022/05/26 06:02:31;;;;;;;7.00;4.50;;;;;;;14.51;88.48;100971.40;106694;1281;62418;-85
2022/05/26 06:05:02;;;;;;;4.00;3.40;;;;;;;14.55;88.00;100969.52;106100;1281;61361;-85
2022/05/26 06:07:29;;;;;;;6.40;4.20;;;;;;;14.56;87.36;100968.66;106329;1281;73977;-86
2022/05/26 06:09:56;;;;;;;6.20;4.20;;;;;;;14.59;87.32;100962.36;106063;1281;71791;-85
2022/05/26 06:12:29;;;;;;;7.00;4.30;;;;;;;14.56;87.41;100970.31;106202;1280;72949;-85
2022/05/26 06:14:56;;;;;;;4.80;3.30;;;;;;;14.52;86.50;100972.95;106396;1281;61416;-86
2022/05/26 06:17:22;;;;;;;6.00;3.20;;;;;;;14.54;86.62;100980.17;106110;1280;61258;-86
2022/05/26 06:19:49;;;;;;;6.90;4.30;;;;;;;14.60;86.37;100978.71;106120;1280;59904;-85
2022/05/26 06:22:19;;;;;;;4.30;2.70;;;;;;;14.69;85.90;100976.27;105938;1280;70028;-85
2022/05/26 06:24:47;;;;;;;4.20;3.10;;;;;;;14.81;85.61;100975.12;105799;1281;72961;-84
2022/05/26 06:30:05;;;;;;;6.70;3.80;;;;;;;15.03;83.78;100973.55;105695;1279;61212;-85
2022/05/26 06:38:18;;;;;;;5.10;2.80;;;;;;;15.43;81.66;100985.46;105712;1280;73002;-86
2022/05/26 06:40:45;;;;;;;4.80;3.10;;;;;;;15.49;81.49;100990.05;105778;1279;63379;-85
2022/05/26 06:43:14;;;;;;;4.50;2.80;;;;;;;15.67;81.28;100986.38;105763;1281;61596;-85
2022/05/26 06:45:43;;;;;;;7.00;3.70;;;;;;;15.83;80.12;100987.30;106235;1280;73658;-88
2022/05/26 06:48:11;;;;;;;7.30;3.60;;;;;;;15.92;80.02;100985.59;105821;1281;72389;-88
2022/05/26 06:50:40;;;;;;;7.70;4.10;;;;;;;15.94;79.52;100991.03;105962;1280;72884;-87
2022/05/26 06:53:07;;;;;;;6.10;3.60;;;;;;;15.97;78.72;100996.91;105981;1281;61285;-87
2022/05/26 06:55:34;;;;;;;9.20;3.70;;;;;;;16.14;78.30;100995.18;106617;1280;61163;-87
2022/05/26 06:58:01;;;;;;;6.20;4.00;;;;;;;16.20;77.37;100994.64;107388;1279;75023;-87
2022/05/26 07:00:28;;;;;;;13.90;4.40;;;;;;;16.18;76.81;101000.98;107565;1279;59423;-86
2022/05/26 07:02:54;;;;;;;4.80;3.20;;;;;;;16.24;75.28;101003.66;107586;1279;74179;-87
2022/05/26 07:05:21;;;;;;;8.30;3.80;;;;;;;16.37;75.01;100999.19;107703;1279;59368;-87
2022/05/26 07:07:48;;;;;;;6.90;3.40;;;;;;;16.48;74.96;100999.31;107538;1279;60276;-86
2022/05/26 07:10:15;;;;;;;6.00;3.20;;;;;;;16.59;74.96;101006.89;106744;1279;74952;-86
2022/05/26 07:12:42;;;;;;;6.10;3.70;;;;;;;16.65;73.85;101013.43;106960;1280;71432;-86
2022/05/26 07:15:11;;;;;;;9.20;3.30;;;;;;;16.64;72.96;101017.39;105846;1281;73277;-86
2022/05/26 07:17:43;;;;;;;5.80;4.30;;;;;;;16.60;73.24;101016.83;106143;1281;62183;-87
2022/05/26 07:20:11;;;;;;;7.40;4.00;;;;;;;16.64;73.78;101014.25;105773;1279;61659;-87
2022/05/26 07:22:38;;;;;;;6.60;2.80;;;;;;;16.72;73.17;101023.66;105842;1279;74283;-87
2022/05/26 07:25:05;;;;;;;7.30;3.50;;;;;;;16.64;71.79;101034.95;105986;1280;71365;-88
2022/05/26 07:27:35;;;;;;;6.80;3.00;;;;;;;16.54;72.11;101023.75;105796;1281;74415;-87
2022/05/26 07:30:04;;;;;;;7.60;3.00;;;;;;;16.41;73.46;101022.91;105785;1281;62674;-87
2022/05/26 07:32:31;;;;;;;6.20;3.00;;;;;;;16.29;73.52;101036.42;105900;1280;61904;-86
2022/05/26 07:34:58;;;;;;;6.60;3.40;;;;;;;16.19;74.03;101039.94;105856;1280;74965;-86
2022/05/26 07:42:57;;;;;;;5.70;3.40;;;;;;;16.18;75.42;101051.55;105785;1280;63328;-87
2022/05/26 07:45:29;;;;;;;6.10;3.80;;;;;;;16.29;74.53;101050.00;105736;1281;61249;-87
2022/05/26 07:47:57;;;;;;;4.20;2.90;;;;;;;16.53;73.54;101050.06;105846;1281;75067;-87
2022/05/26 07:50:23;;;;;;;8.00;3.40;;;;;;;16.74;72.72;101047.48;106072;1279;69834;-86
2022/05/26 07:52:51;;;;;;;5.80;2.50;;;;;;;16.84;72.21;101047.41;105970;1280;72906;-87
2022/05/26 07:55:19;;;;;;;9.60;3.40;;;;;;;16.73;71.37;101052.95;105904;1281;63757;-87
2022/05/26 07:57:49;;;;;;;5.50;3.10;;;;;;;16.61;71.48;101048.63;105920;1279;61813;-88
2022/05/26 08:00:17;;;;;;;8.50;4.60;;;;;;;16.48;71.89;101050.55;105824;1279;75095;-88
2022/05/26 08:02:51;;;;;;;5.20;2.90;;;;;;;16.37;72.42;101061.39;106299;1279;71476;-87
2022/05/26 08:05:18;;;;;;;9.70;3.20;;;;;;;16.16;72.56;101064.23;105861;1281;74110;-87
2022/05/26 08:07:46;;;;;;;10.00;3.00;;;;;;;15.96;71.68;101077.23;105775;1280;63344;-87
2022/05/26 08:10:15;;;;;;;6.90;3.30;;;;;;;15.77;72.73;101077.94;105888;1279;60516;-87
2022/05/26 08:12:46;;;;;;;6.20;2.70;;;;;;;15.60;73.90;101077.52;106016;1280;74125;-85
2022/05/26 08:15:13;;;;;;;7.10;2.60;;;;;;;15.41;72.77;101083.67;106118;1279;71663;-87
2022/05/26 08:17:40;;;;;;;7.40;2.10;;;;;;;15.36;73.00;101084.96;105905;1280;74564;-87
2022/05/26 08:20:12;;;;;;;3.90;2.40;;;;;;;15.39;72.41;101089.95;105942;1279;61978;-86
2022/05/26 08:22:46;;;;;;;5.90;2.30;;;;;;;15.43;72.48;101086.69;106152;1280;61638;-87
2022/05/26 08:25:16;;;;;;;6.90;2.80;;;;;;;15.51;71.84;101080.34;106317;1280;76961;-87
2022/05/26 08:27:47;;;;;;;5.70;2.40;;;;;;;15.71;71.88;101083.08;106131;1279;71347;-86
2022/05/26 08:30:18;;;;;;;7.60;3.40;;;;;;;15.97;72.31;101079.21;106196;1281;73965;-86
2022/05/26 08:32:47;;;;;;;5.50;2.30;;;;;;;16.18;72.42;101083.09;106514;1279;62512;-87
2022/05/26 08:35:19;;;;;;;6.40;3.20;;;;;;;16.42;72.29;101090.52;105581;1280;60430;-87
2022/05/26 08:38:01;;;;;;;11.60;4.00;;;;;;;16.62;69.20;101096.30;105597;1279;73789;-87
2022/05/26 08:40:47;;;;;;;6.00;3.20;;;;;;;16.90;69.28;101088.62;105752;1280;71384;-87
2022/05/26 08:43:24;;;;;;;6.60;2.90;;;;;;;17.11;68.42;101091.61;106025;1280;73515;-87
2022/05/26 08:45:54;;;;;;;5.10;1.90;;;;;;;17.20;63.11;101096.05;105902;1281;62295;-87
2022/05/26 08:48:58;;;;;;;4.30;2.50;;;;;;;17.25;62.60;101098.23;105948;1281;61122;-88
2022/05/26 08:51:52;;;;;;;3.70;2.00;;;;;;;17.36;58.58;101100.52;106155;1280;76456;-86
2022/05/26 08:54:23;;;;;;;3.80;1.60;;;;;;;17.49;58.86;101096.61;106043;1281;72302;-87
2022/05/26 08:56:52;;;;;;;6.30;1.50;;;;;;;17.51;55.71;101086.63;106087;1280;72539;-87
2022/05/26 08:59:21;;;;;;;3.40;1.60;;;;;;;17.55;56.49;101097.01;105989;1280;60708;-88
2022/05/26 09:01:48;;;;;;;4.20;1.70;;;;;;;17.63;57.48;101096.70;106273;1279;61598;-88
2022/05/26 09:04:16;;;;;;;6.90;1.60;;;;;;;17.71;58.32;101098.85;106064;1280;76152;-87
2022/05/26 09:15:11;;;;;;;4.50;1.90;;;;;;;18.40;56.09;101111.21;105865;1279;62392;-87
2022/05/26 09:17:38;;;;;;;6.40;2.30;;;;;;;18.36;55.78;101114.20;105892;1280;74969;-87
2022/05/26 09:20:25;;;;;;;6.80;2.30;;;;;;;18.33;55.56;101112.04;105907;1279;71440;-86
2022/05/26 09:22:52;;;;;;;3.70;1.60;;;;;;;18.32;55.32;101121.21;105659;1281;73086;-87
2022/05/26 09:26:08;;;;;;;6.40;1.90;;;;;;;18.44;55.77;101125.41;105989;1280;61239;-87
2022/05/26 09:28:37;;;;;;;4.90;1.90;;;;;;;18.65;55.35;101127.36;105328;1286;60458;-86
2022/05/26 09:31:25;;;;;;;6.00;3.00;;;;;;;18.63;53.73;101133.42;105228;1286;76043;-87
2022/05/26 09:34:17;;;;;;;3.50;1.60;;;;;;;18.53;52.72;101131.54;105228;1281;72048;-87
2022/05/26 09:36:46;;;;;;;7.50;1.80;;;;;;;18.73;54.43;101129.26;105956;1279;73337;-86
2022/05/26 09:39:19;;;;;;;4.90;1.30;;;;;;;18.93;54.19;101128.30;105799;1281;60752;-87
2022/05/26 09:41:50;;;;;;;3.50;1.50;;;;;;;18.86;53.99;101133.94;106021;1279;61179;-87
2022/05/26 09:44:32;;;;;;;4.30;1.20;;;;;;;18.70;53.44;101139.36;105994;1280;74889;-87
2022/05/26 09:47:03;;;;;;;4.80;1.80;;;;;;;18.57;54.83;101140.20;106363;1279;71917;-87
2022/05/26 09:49:40;;;;;;;3.90;1.50;;;;;;;18.76;55.59;101146.98;106015;1281;72889;-88
2022/05/26 09:52:23;;;;;;;3.20;1.50;;;;;;;18.91;54.23;101143.08;106789;1280;61270;-87
2022/05/26 09:55:08;;;;;;;2.80;1.60;;;;;;;18.84;53.91;101146.20;106175;1279;61630;-86
2022/05/26 09:57:36;;;;;;;4.40;1.60;;;;;;;18.80;53.60;101150.27;105687;1279;75003;-87
2022/05/26 10:00:14;;;;;;;5.20;1.50;;;;;;;18.94;53.78;101154.60;106085;1279;74050;-85
2022/05/26 10:02:44;;;;;;;3.00;1.20;;;;;;;18.86;51.85;101164.41;105936;1279;72925;-86
2022/05/26 10:05:29;;;;;;;5.30;1.30;;;;;;;18.75;52.14;101166.95;106173;1279;62089;-88
2022/05/26 10:08:35;;;;;;;6.20;1.70;;;;;;;18.82;52.08;101162.13;105623;1281;61366;-88
2022/05/26 10:11:51;;;;;;;6.80;1.50;;;;;;;18.89;53.23;101170.77;105962;1279;76491;-87
2022/05/26 10:14:46;;;;;;;3.40;1.40;;;;;;;18.95;52.64;101172.95;105466;1279;71674;-87
2022/05/26 10:17:34;;;;;;;4.50;1.60;;;;;;;18.96;51.58;101172.45;105568;1283;72963;-88
2022/05/26 10:20:33;;;;;;;4.10;1.20;;;;;;;19.02;51.43;101176.41;105391;1284;61479;-90
2022/05/26 10:23:14;;;;;;;2.50;1.10;;;;;;;19.13;50.77;101172.23;105581;1284;61322;-86
2022/05/26 10:26:17;;;;;;;4.50;1.80;;;;;;;19.15;51.64;101167.90;105613;1283;74889;-86
2022/05/26 10:28:55;;;;;;;3.40;1.20;;;;;;;19.33;51.53;101183.71;105364;1284;72657;-87
2022/05/26 10:31:49;;;;;;;5.00;1.20;;;;;;;19.35;48.14;101178.20;105535;1283;73107;-86
2022/05/26 10:34:35;;;;;;;5.20;1.40;;;;;;;19.30;49.75;101176.66;105240;1284;61304;-86
2022/05/26 10:37:25;;;;;;;2.90;1.00;;;;;;;19.31;48.72;101189.65;105658;1283;61249;-86
2022/05/26 10:40:02;;;;;;;4.50;1.40;;;;;;;19.13;49.04;101188.11;105553;1284;75090;-87
2022/05/26 10:42:43;;;;;;;5.80;1.60;;;;;;;19.10;49.66;101177.29;105457;1284;71435;-86
2022/05/26 10:45:36;;;;;;;5.60;1.40;;;;;;;19.01;49.59;101182.13;105597;1283;72856;-87
2022/05/26 10:48:06;;;;;;;4.30;1.10;;;;;;;18.89;49.63;101181.60;105716;1281;61390;-87
2022/05/26 10:51:00;;;;;;;6.90;1.50;;;;;;;18.84;50.04;101180.48;105539;1281;61294;-87
2022/05/26 10:53:45;;;;;;;5.50;1.70;;;;;;;18.86;50.91;101176.90;105599;1280;76192;-87
2022/05/26 10:56:31;;;;;;;4.40;1.30;;;;;;;19.16;50.42;101182.16;105940;1279;71821;-86
2022/05/26 10:59:17;;;;;;;3.10;1.20;;;;;;;19.44;49.08;101185.74;105755;1279;73667;-87
2022/05/26 11:02:10;;;;;;;4.20;1.60;;;;;;;19.51;48.99;101177.96;105595;1281;63532;-87
2022/05/26 11:04:46;;;;;;;3.20;0.90;;;;;;;19.37;49.41;101181.98;105919;1279;61348;-88
2022/05/26 11:07:32;;;;;;;2.90;1.30;;;;;;;19.26;49.08;101181.84;105963;1279;75936;-88
2022/05/26 11:10:06;;;;;;;2.50;1.00;;;;;;;19.31;49.50;101182.16;105747;1279;71449;-87
2022/05/26 11:12:43;;;;;;;4.80;1.50;;;;;;;19.30;48.39;101186.65;106436;1277;72979;-87
2022/05/26 11:18:18;;;;;;;2.70;0.90;;;;;;;19.32;48.71;101190.84;105923;1279;61709;-87
2022/05/26 11:20:50;;;;;;;4.40;1.20;;;;;;;19.26;48.33;101187.96;105688;1280;75306;-87
2022/05/26 11:23:18;;;;;;;5.90;1.40;;;;;;;19.21;49.46;101193.94;105894;1279;71502;-86
2022/05/26 11:26:00;;;;;;;3.90;1.10;;;;;;;19.32;49.26;101191.27;105807;1281;73784;-86
2022/05/26 11:28:41;;;;;;;3.40;1.30;;;;;;;19.61;48.12;101181.70;106089;1279;61813;-87
2022/05/26 11:37:28;;;;;;;2.30;0.80;;;;;;;19.57;47.95;101191.31;106213;1279;72460;-89
2022/05/26 11:40:01;;;;;;;3.40;0.90;;;;;;;19.34;48.12;101183.75;105822;1279;74094;-88
2022/05/26 11:42:31;;;;;;;3.80;1.20;;;;;;;19.18;48.53;101195.94;105633;1279;61286;-87
2022/05/26 11:45:13;;;;;;;5.50;1.30;;;;;;;19.11;48.63;101191.77;105899;1279;61279;-87
2022/05/26 11:48:05;;;;;;;4.10;1.10;;;;;;;19.19;48.86;101202.13;106121;1279;75289;-87
2022/05/26 11:50:58;;;;;;;5.00;1.50;;;;;;;19.45;48.96;101200.99;106173;1279;73875;-88
2022/05/26 11:53:32;;;;;;;10.00;1.40;;;;;;;19.65;48.71;101200.06;105864;1281;74061;-87
2022/05/26 11:56:19;;;;;;;4.90;2.10;;;;;;;19.94;48.37;101197.45;106130;1279;61201;-87
2022/05/26 11:59:06;;;;;;;3.50;1.00;;;;;;;20.03;47.09;101196.30;105771;1279;61612;-88
2022/05/26 12:01:35;;;;;;;3.10;1.30;;;;;;;20.21;46.90;101180.39;105824;1280;75890;-88
2022/05/26 12:04:30;;;;;;;3.50;1.20;;;;;;;20.46;46.82;101173.88;105688;1279;71417;-88
2022/05/26 12:07:23;;;;;;;2.40;1.00;;;;;;;20.72;46.01;101181.06;105518;1282;72987;-88
2022/05/26 12:09:58;;;;;;;2.80;0.90;;;;;;;20.55;44.87;101174.01;105855;1281;61389;-87
2022/05/26 12:12:33;;;;;;;2.90;1.00;;;;;;;20.93;44.35;101170.04;105762;1279;62602;-88
2022/05/26 12:15:23;;;;;;;3.30;1.00;;;;;;;21.50;43.26;101159.35;105845;1279;74786;-88
2022/05/26 12:17:55;;;;;;;5.00;1.10;;;;;;;21.36;43.29;101171.91;105931;1279;71459;-87
2022/05/26 12:20:24;;;;;;;6.50;1.60;;;;;;;21.11;42.82;101160.54;105982;1279;72663;-87
2022/05/26 12:22:50;;;;;;;3.60;0.90;;;;;;;21.39;42.95;101164.88;105790;1279;61474;-87
2022/05/26 12:25:39;;;;;;;2.40;1.10;;;;;;;21.80;42.74;101152.81;105848;1279;61894;-88
2022/05/26 12:28:15;;;;;;;5.80;1.40;;;;;;;21.88;42.38;101154.98;106019;1279;75030;-87
2022/05/26 12:30:44;;;;;;;2.90;1.20;;;;;;;21.89;42.77;101159.98;105797;1280;71157;-87
2022/05/26 12:33:19;;;;;;;4.20;0.90;;;;;;;21.59;43.77;101165.71;105811;1279;72932;-87
2022/05/26 12:35:58;;;;;;;5.20;1.10;;;;;;;21.26;42.75;101170.39;105853;1279;61147;-87
2022/05/26 12:38:46;;;;;;;5.40;0.90;;;;;;;20.92;43.51;101159.93;105882;1279;61300;-87
2022/05/26 12:41:49;;;;;;;4.90;1.00;;;;;;;21.12;43.98;101169.64;105948;1279;76319;-87
2022/05/26 12:44:52;;;;;;;4.40;0.70;;;;;;;21.72;41.61;101164.70;105918;1279;74210;-87
2022/05/26 12:47:35;;;;;;;4.20;0.80;;;;;;;21.59;41.18;101164.58;106675;1281;72980;-87
2022/05/26 12:50:02;;;;;;;3.30;1.00;;;;;;;22.06;41.51;101156.26;105983;1280;62540;-88
2022/05/26 12:52:44;;;;;;;3.30;1.10;;;;;;;22.69;41.03;101151.59;106067;1279;60733;-89
2022/05/26 12:55:24;;;;;;;2.90;0.70;;;;;;;22.38;40.50;101141.70;106046;1279;76016;-89
2022/05/26 12:57:56;;;;;;;2.20;0.70;;;;;;;21.94;39.37;101153.58;106077;1279;72179;-89
2022/05/26 13:00:34;;;;;;;4.90;0.90;;;;;;;21.48;39.89;101142.45;106055;1279;75624;-89